Time;durP1;ratioP1;P1;durP2;ratioP2;P2;SDS_P1;SDS_P2;PMS_P1;PMS_P2;Temp;Humidity;BMP_temperature;BMP_pressure;BME280_temperature;BME280_humidity;BME280_pressure;Samples;Min_cycle;Max_cycle;Signal;HPM_P1;HPM_P2
2023/03/03 00:02:13;;;;;;;;;;;;;;;1.90;100.00;102385.84;10420709;28;20288;-63
2023/03/03 00:07:21;;;;;;;;;;;;;;;1.65;100.00;102383.19;10421904;28;20011;-63
2023/03/03 00:12:24;;;;;;;;;;;;;;;1.50;100.00;102373.63;10418911;28;19952;-62
2023/03/03 00:17:27;;;;;;;;;;;;;;;1.42;100.00;102389.06;10420044;28;19975;-62
2023/03/03 00:22:30;;;;;;;;;;;;;;;1.55;100.00;102376.25;10420220;28;19979;-62
2023/03/03 00:27:34;;;;;;;;;;;;;;;1.45;100.00;102383.06;10400310;28;19980;-62
2023/03/03 00:32:41;;;;;;;;;;;;;;;1.24;100.00;102379.47;10419044;28;20343;-62
2023/03/03 00:37:43;;;;;;;;;;;;;;;1.18;100.00;102384.59;10400800;28;19925;-62
2023/03/03 00:42:48;;;;;;;;;;;;;;;1.20;100.00;102392.34;10420529;28;19925;-62
2023/03/03 00:47:50;;;;;;;;;;;;;;;1.45;100.00;102376.16;10419552;28;19948;-63
2023/03/03 00:52:54;;;;;;;;;;;;;;;1.76;100.00;102380.63;10417311;28;19952;-63
2023/03/03 00:57:56;;;;;;;;;;;;;;;1.71;100.00;102374.59;10397311;23;19925;-62
2023/03/03 01:03:03;;;;;;;;;;;;;;;1.72;100.00;102384.91;10378766;28;19981;-62
2023/03/03 01:08:05;;;;;;;;;;;;;;;1.71;100.00;102380.59;10376801;28;20387;-62
2023/03/03 01:13:08;;;;;;;;;;;;;;;1.52;100.00;102382.22;10375635;28;20388;-62
2023/03/03 01:18:10;;;;;;;;;;;;;;;1.49;100.00;102390.81;10375592;28;19925;-62
2023/03/03 01:23:12;;;;;;;;;;;;;;;1.53;100.00;102393.41;10394094;28;20442;-62
2023/03/03 01:28:14;;;;;;;;;;;;;;;1.52;100.00;102392.56;10401180;28;19925;-62
2023/03/03 01:33:17;;;;;;;;;;;;;;;1.43;100.00;102382.16;10417957;28;19932;-62
2023/03/03 01:38:19;;;;;;;;;;;;;;;1.59;100.00;102383.13;10415045;28;20402;-61
2023/03/03 01:43:21;;;;;;;;;;;;;;;1.46;100.00;102383.06;10417599;28;19932;-62
2023/03/03 01:48:26;;;;;;;;;;;;;;;1.37;100.00;102387.31;10398812;28;19929;-62
2023/03/03 01:53:41;;;;;;;;;;;;;;;1.82;100.00;102385.84;10417800;28;19925;-62
2023/03/03 01:58:44;;;;;;;;;;;;;;;1.93;100.00;102383.28;10381366;28;20331;-62
2023/03/03 02:03:46;;;;;;;;;;;;;;;1.65;100.00;102394.34;10416747;28;20280;-62
2023/03/03 02:09:07;;;;;;;;;;;;;;;1.64;100.00;102394.34;10416849;28;19925;-62
2023/03/03 02:14:10;;;;;;;;;;;;;;;1.80;100.00;102397.84;10375590;28;19932;-62
2023/03/03 02:19:17;;;;;;;;;;;;;;;1.80;100.00;102392.69;10382840;28;19984;-62
2023/03/03 02:24:19;;;;;;;;;;;;;;;1.89;100.00;102392.75;10399234;28;19925;-62
2023/03/03 02:29:21;;;;;;;;;;;;;;;1.76;100.00;102399.56;10414288;28;19925;-62
2023/03/03 02:34:24;;;;;;;;;;;;;;;1.49;100.00;102400.28;10416386;28;19975;-62
2023/03/03 02:39:26;;;;;;;;;;;;;;;1.49;100.00;102395.97;10413966;28;19925;-62
2023/03/03 02:44:30;;;;;;;;;;;;;;;1.61;100.00;102402.06;10415594;28;20272;-62
2023/03/03 02:49:33;;;;;;;;;;;;;;;1.46;100.00;102393.41;10397860;28;19925;-62
2023/03/03 02:54:35;;;;;;;;;;;;;;;1.50;100.00;102389.13;10397209;28;19925;-61
2023/03/03 02:59:37;;;;;;;;;;;;;;;1.70;100.00;102390.91;10416880;28;19929;-62
2023/03/03 03:04:39;;;;;;;;;;;;;;;1.43;100.00;102390.78;10423549;28;19971;-62
2023/03/03 03:09:42;;;;;;;;;;;;;;;1.60;100.00;102403.78;10423618;28;19975;-62
2023/03/03 03:14:44;;;;;;;;;;;;;;;1.44;100.00;102408.00;10423145;28;19925;-61
2023/03/03 03:19:46;;;;;;;;;;;;;;;1.44;100.00;102412.28;10422039;28;19931;-62
2023/03/03 03:24:48;;;;;;;;;;;;;;;1.37;100.00;102402.78;10422974;28;19929;-62
2023/03/03 03:29:50;;;;;;;;;;;;;;;1.49;100.00;102401.13;10422689;28;20326;-62
2023/03/03 03:34:53;;;;;;;;;;;;;;;1.45;100.00;102411.44;10420903;28;20395;-62
2023/03/03 03:39:55;;;;;;;;;;;;;;;1.49;100.00;102401.13;10421287;28;19925;-62
2023/03/03 03:44:57;;;;;;;;;;;;;;;1.55;100.00;102407.22;10421484;28;19925;-62
2023/03/03 03:49:59;;;;;;;;;;;;;;;1.84;100.00;102400.47;10422134;28;19971;-62
2023/03/03 03:55:02;;;;;;;;;;;;;;;1.64;100.00;102407.25;10421864;28;19925;-62
2023/03/03 04:00:05;;;;;;;;;;;;;;;1.44;100.00;102396.81;10420724;28;20036;-62
2023/03/03 04:05:07;;;;;;;;;;;;;;;1.64;100.00;102402.94;10403105;28;20347;-62
2023/03/03 04:10:09;;;;;;;;;;;;;;;1.96;100.00;102399.66;10419763;28;20427;-62
2023/03/03 04:15:13;;;;;;;;;;;;;;;1.79;100.00;102406.47;10421616;28;19932;-62
2023/03/03 04:20:15;;;;;;;;;;;;;;;1.83;100.00;102403.94;10418744;28;19929;-62
2023/03/03 04:25:17;;;;;;;;;;;;;;;1.83;100.00;102401.34;10420612;28;20380;-62
2023/03/03 04:30:20;;;;;;;;;;;;;;;1.95;100.00;102397.06;10420417;28;19929;-62
2023/03/03 04:35:22;;;;;;;;;;;;;;;1.80;100.00;102392.69;10419461;28;19925;-62
2023/03/03 04:40:24;;;;;;;;;;;;;;;1.82;100.00;102386.69;10418880;28;19929;-62
2023/03/03 04:45:26;;;;;;;;;;;;;;;1.80;100.00;102397.84;10420586;28;19991;-62
2023/03/03 04:50:28;;;;;;;;;;;;;;;1.89;100.00;102400.50;10419715;28;20368;-62
2023/03/03 04:55:30;;;;;;;;;;;;;;;2.08;100.00;102400.56;10418342;28;19932;-62
2023/03/03 05:00:33;;;;;;;;;;;;;;;2.06;100.00;102407.47;10415719;28;20372;-62
2023/03/03 05:05:35;;;;;;;;;;;;;;;2.19;100.00;102410.09;10419077;28;20261;-62
2023/03/03 05:10:37;;;;;;;;;;;;;;;2.18;100.00;102410.06;10419360;28;19936;-62
2023/03/03 05:15:39;;;;;;;;;;;;;;;1.73;100.00;102417.66;10417401;28;20390;-62
2023/03/03 05:20:44;;;;;;;;;;;;;;;2.21;100.00;102428.19;10399545;28;20396;-62
2023/03/03 05:25:46;;;;;;;;;;;;;;;2.08;100.00;102424.69;10418544;28;19925;-62
2023/03/03 05:30:49;;;;;;;;;;;;;;;2.14;100.00;102418.69;10417956;28;19925;-62
2023/03/03 05:35:54;;;;;;;;;;;;;;;2.05;100.00;102414.31;10418520;28;19926;-63
2023/03/03 05:40:56;;;;;;;;;;;;;;;2.19;100.00;102414.41;10415836;28;20387;-62
2023/03/03 05:45:59;;;;;;;;;;;;;;;2.40;100.00;102421.34;10400112;28;19925;-62
2023/03/03 05:51:02;;;;;;;;;;;;;;;2.13;100.00;102420.38;10399210;28;20403;-62
2023/03/03 05:56:04;;;;;;;;;;;;;;;2.08;100.00;102409.19;10416067;28;20289;-62
2023/03/03 06:01:06;;;;;;;;;;;;;;;2.41;100.00;102425.66;10415241;28;19933;-62
2023/03/03 06:06:08;;;;;;;;;;;;;;;2.18;100.00;102423.00;10399212;28;20372;-63
2023/03/03 06:11:11;;;;;;;;;;;;;;;2.16;100.00;102429.88;10415976;28;20384;-62
2023/03/03 06:16:14;;;;;;;;;;;;;;;2.33;100.00;102437.69;10414476;28;19940;-62
2023/03/03 06:21:16;;;;;;;;;;;;;;;2.49;100.00;102439.47;10416843;28;19929;-62
2023/03/03 06:26:18;;;;;;;;;;;;;;;2.28;100.00;102444.56;10416121;28;19929;-62
2023/03/03 06:31:20;;;;;;;;;;;;;;;2.37;100.00;102449.75;10416034;28;19924;-62
2023/03/03 06:36:24;;;;;;;;;;;;;;;2.03;100.00;102450.53;10415112;28;20268;-62
2023/03/03 06:41:26;;;;;;;;;;;;;;;2.30;100.00;102451.47;10416269;28;19928;-62
2023/03/03 06:46:28;;;;;;;;;;;;;;;2.14;100.00;102453.13;10416301;28;19929;-62
2023/03/03 06:51:32;;;;;;;;;;;;;;;2.19;100.00;102466.09;10416128;28;19925;-62
2023/03/03 06:56:35;;;;;;;;;;;;;;;2.23;100.00;102470.41;10415410;28;19925;-62
2023/03/03 07:01:37;;;;;;;;;;;;;;;2.32;100.00;102474.72;10397672;28;19925;-62
2023/03/03 07:06:39;;;;;;;;;;;;;;;2.24;100.00;102474.72;10397697;28;20386;-62
2023/03/03 07:11:42;;;;;;;;;;;;;;;2.14;100.00;102478.97;10415111;28;19975;-62
2023/03/03 07:16:51;;;;;;;;;;;;;;;2.23;100.00;102493.66;10415032;28;19925;-62
2023/03/03 07:21:53;;;;;;;;;;;;;;;2.37;100.00;102504.03;10414900;28;20372;-62
2023/03/03 07:26:59;;;;;;;;;;;;;;;2.36;100.00;102508.38;10415455;28;19933;-62
2023/03/03 07:32:01;;;;;;;;;;;;;;;2.51;100.00;102511.88;10414729;28;19925;-62
2023/03/03 07:37:09;;;;;;;;;;;;;;;2.66;100.00;102511.06;10397829;28;19925;-62
2023/03/03 07:42:22;;;;;;;;;;;;;;;2.67;100.00;102508.47;10397595;28;19932;-62
2023/03/03 07:47:25;;;;;;;;;;;;;;;2.94;100.00;102518.03;10420142;28;19925;-62
2023/03/03 07:52:28;;;;;;;;;;;;;;;2.89;100.00;102531.81;10404425;28;19929;-62
2023/03/03 07:57:38;;;;;;;;;;;;;;;2.92;100.00;102530.09;10422389;28;19925;-62
2023/03/03 08:02:42;;;;;;;;;;;;;;;2.90;100.00;102536.13;10404203;28;19929;-62
2023/03/03 08:07:44;;;;;;;;;;;;;;;2.96;100.00;102536.16;10403771;28;19933;-62
2023/03/03 08:12:47;;;;;;;;;;;;;;;2.96;100.00;102538.75;10421208;28;19932;-62
2023/03/03 08:17:49;;;;;;;;;;;;;;;3.07;100.00;102542.19;10403961;28;19929;-62
2023/03/03 08:22:52;;;;;;;;;;;;;;;3.03;98.40;102545.66;10421410;28;19932;-62
2023/03/03 08:27:54;;;;;;;;;;;;;;;3.05;98.16;102550.84;10421284;28;19929;-62
2023/03/03 08:32:56;;;;;;;;;;;;;;;3.08;99.62;102553.44;10421125;28;19932;-62
2023/03/03 08:37:58;;;;;;;;;;;;;;;3.23;99.48;102561.22;10420197;28;19929;-62
2023/03/03 08:43:01;;;;;;;;;;;;;;;3.44;97.69;102559.50;10420669;28;19925;-62
2023/03/03 08:48:03;;;;;;;;;;;;;;;3.49;96.97;102558.63;10419894;28;20288;-62
2023/03/03 08:53:07;;;;;;;;;;;;;;;3.77;95.71;102563.81;10420285;28;20019;-62
2023/03/03 08:58:09;;;;;;;;;;;;;;;3.64;95.03;102565.56;10401555;28;19925;-62
2023/03/03 09:03:12;;;;;;;;;;;;;;;3.74;94.80;102566.41;10419973;28;19932;-62
2023/03/03 09:08:14;;;;;;;;;;;;;;;3.81;94.67;102573.31;10419793;28;19975;-62
2023/03/03 09:13:18;;;;;;;;;;;;;;;3.72;94.84;102581.09;10419563;28;19929;-62
2023/03/03 09:18:21;;;;;;;;;;;;;;;3.71;93.25;102577.63;10419255;28;19925;-62
2023/03/03 09:23:33;;;;;;;;;;;;;;;3.87;93.86;102575.91;10418504;28;19948;-61
2023/03/03 09:28:35;;;;;;;;;;;;;;;3.79;92.85;102576.78;10418875;28;19971;-62
2023/03/03 09:33:44;;;;;;;;;;;;;;;4.07;90.97;102570.69;10418579;28;19975;-62
2023/03/03 09:38:46;;;;;;;;;;;;;;;4.01;91.23;102575.03;10418418;28;20003;-61
2023/03/03 09:43:59;;;;;;;;;;;;;;;4.23;90.92;102581.03;10400274;28;19929;-61
2023/03/03 09:49:01;;;;;;;;;;;;;;;4.19;91.15;102581.91;10417464;28;19932;-62
2023/03/03 09:54:10;;;;;;;;;;;;;;;4.31;91.02;102584.47;10417797;28;19975;-62
2023/03/03 09:59:21;;;;;;;;;;;;;;;4.56;88.52;102581.81;10399904;28;19925;-61
2023/03/03 10:04:44;;;;;;;;;;;;;;;4.85;88.39;102581.69;10416895;28;19994;-62
2023/03/03 10:09:52;;;;;;;;;;;;;;;4.99;87.69;102590.25;10406321;28;19932;-62
2023/03/03 10:15:02;;;;;;;;;;;;;;;5.39;85.55;102592.59;10417108;28;19925;-62
2023/03/03 10:20:15;;;;;;;;;;;;;;;5.45;84.73;102583.91;10398806;28;19925;-62
2023/03/03 10:25:37;;;;;;;;;;;;;;;5.58;84.06;102592.44;10398785;28;19929;-62
2023/03/03 10:30:52;;;;;;;;;;;;;;;5.98;83.36;102593.91;10399216;28;19925;-62
2023/03/03 10:36:10;;;;;;;;;;;;;;;5.95;82.59;102594.75;10416567;28;19925;-62
2023/03/03 10:41:25;;;;;;;;;;;;;;;6.00;81.42;102595.63;10416331;28;19925;-62
2023/03/03 10:46:34;;;;;;;;;;;;;;;6.12;81.67;102587.69;10398826;28;19926;-62
2023/03/03 10:51:55;;;;;;;;;;;;;;;6.79;80.98;102597.34;10415543;28;20372;-62
2023/03/03 10:56:57;;;;;;;;;;;;;;;6.74;77.97;102581.78;10416080;28;19925;-62
2023/03/03 11:02:05;;;;;;;;;;;;;;;8.22;81.23;102576.84;10415183;28;19925;-62
2023/03/03 11:07:11;;;;;;;;;;;;;;;8.70;76.77;102579.38;10415869;28;19933;-62
2023/03/03 11:12:13;;;;;;;;;;;;;;;7.57;73.54;102583.19;10397610;28;19987;-62
2023/03/03 11:17:15;;;;;;;;;;;;;;;6.42;74.54;102592.56;10415617;28;19975;-62
2023/03/03 11:22:26;;;;;;;;;;;;;;;7.92;74.66;102588.72;10420054;28;20292;-62
2023/03/03 11:27:49;;;;;;;;;;;;;;;8.35;73.26;102582.66;10423593;28;19929;-62
2023/03/03 11:33:09;;;;;;;;;;;;;;;8.13;71.91;102577.00;10402471;28;19925;-62
2023/03/03 11:38:33;;;;;;;;;;;;;;;8.15;70.43;102575.22;10422487;28;20364;-62
2023/03/03 11:43:43;;;;;;;;;;;;;;;10.21;75.19;102569.66;10405526;28;19926;-62
2023/03/03 11:48:49;;;;;;;;;;;;;;;14.39;65.44;102549.28;10405292;28;19925;-63
2023/03/03 11:53:51;;;;;;;;;;;;;;;15.13;58.29;102543.22;10422668;28;19980;-62
2023/03/03 11:59:12;;;;;;;;;;;;;;;14.67;57.14;102541.84;10422078;28;19925;-62
2023/03/03 12:04:15;;;;;;;;;;;;;;;15.96;49.71;102545.19;10422105;28;19929;-62
2023/03/03 12:09:36;;;;;;;;;;;;;;;16.42;50.77;102546.31;10404513;28;19925;-63
2023/03/03 12:14:44;;;;;;;;;;;;;;;17.52;49.55;102535.72;10421828;28;19974;-62
2023/03/03 12:20:04;;;;;;;;;;;;;;;16.81;50.37;102548.56;10421550;28;19932;-68
2023/03/03 12:25:39;;;;;;;;;;;;;;;18.51;47.73;102522.63;10403936;28;19980;-68
2023/03/03 12:31:00;;;;;;;;;;;;;;;17.83;46.37;102516.19;10387574;28;20282;-68
2023/03/03 12:36:14;;;;;;;;;;;;;;;16.85;46.78;102536.88;10420396;28;20298;-64
2023/03/03 12:41:17;;;;;;;;;;;;;;;18.29;45.45;102518.69;10403445;28;19975;-63
2023/03/03 12:46:21;;;;;;;;;;;;;;;18.69;42.03;102516.13;10420628;28;19925;-63
2023/03/03 12:51:35;;;;;;;;;;;;;;;18.08;43.27;102510.25;10403871;28;19975;-63
2023/03/03 12:56:39;;;;;;;;;;;;;;;16.26;42.70;102512.78;10402118;28;20339;-63
2023/03/03 13:01:41;;;;;;;;;;;;;;;18.95;44.76;102495.03;10385463;28;19929;-63
2023/03/03 13:06:47;;;;;;;;;;;;;;;17.41;43.58;102494.00;10419900;28;19929;-63
2023/03/03 13:12:02;;;;;;;;;;;;;;;16.28;46.28;102499.50;10402143;28;19925;-63
2023/03/03 13:17:04;;;;;;;;;;;;;;;19.24;42.61;102484.25;10394761;23;19925;-72
2023/03/03 13:22:07;;;;;;;;;;;;;;;20.03;39.84;102485.88;10377599;28;20257;-72
2023/03/03 13:27:11;;;;;;;;;;;;;;;18.88;41.67;102483.13;10378130;28;19925;-71
2023/03/03 13:32:13;;;;;;;;;;;;;;;17.86;40.53;102476.25;10393319;28;19936;-65
2023/03/03 13:37:19;;;;;;;;;;;;;;;17.09;42.28;102479.06;10377934;28;19932;-65
2023/03/03 13:42:22;;;;;;;;;;;;;;;21.62;39.96;102470.66;10377219;28;19925;-65
2023/03/03 13:47:30;;;;;;;;;;;;;;;20.25;38.27;102472.88;10377289;28;19926;-65
2023/03/03 13:52:33;;;;;;;;;;;;;;;19.89;38.90;102467.41;10376550;28;19960;-65
2023/03/03 13:57:55;;;;;;;;;;;;;;;18.82;40.82;102471.06;10375853;28;19980;-65
2023/03/03 14:03:03;;;;;;;;;;;;;;;18.12;39.48;102464.06;10376150;28;19929;-65
2023/03/03 14:08:10;;;;;;;;;;;;;;;16.46;41.26;102457.97;10376461;28;19926;-65
2023/03/03 14:13:32;;;;;;;;;;;;;;;18.77;43.80;102451.94;10390688;28;19934;-65
2023/03/03 14:18:38;;;;;;;;;;;;;;;14.57;43.55;102461.47;10402486;28;19925;-65
2023/03/03 14:23:53;;;;;;;;;;;;;;;14.06;47.68;102450.66;10398582;28;20269;-64
2023/03/03 14:29:20;;;;;;;;;;;;;;;17.57;40.85;102438.31;10399539;28;19932;-64
2023/03/03 14:34:22;;;;;;;;;;;;;;;18.36;38.27;102437.78;10416634;28;19929;-64
2023/03/03 14:39:30;;;;;;;;;;;;;;;20.87;33.95;102427.50;10415843;28;19925;-65
2023/03/03 14:44:37;;;;;;;;;;;;;;;19.45;37.87;102431.47;10416348;28;19982;-64
2023/03/03 14:49:39;;;;;;;;;;;;;;;23.69;33.17;102419.81;10398820;28;19925;-65
2023/03/03 14:54:44;;;;;;;;;;;;;;;19.39;35.66;102419.47;10397961;28;20047;-65
2023/03/03 15:00:07;;;;;;;;;;;;;;;16.75;40.97;102424.59;10398177;28;20368;-64
2023/03/03 15:05:16;;;;;;;;;;;;;;;15.06;43.72;102421.31;10416023;28;19964;-64
2023/03/03 15:10:25;;;;;;;;;;;;;;;16.89;40.22;102407.94;10415330;28;20368;-64
2023/03/03 15:15:28;;;;;;;;;;;;;;;17.27;40.01;102403.00;10415076;28;19952;-64
2023/03/03 15:20:34;;;;;;;;;;;;;;;13.94;45.76;102401.22;10398179;28;19925;-64
2023/03/03 15:25:49;;;;;;;;;;;;;;;12.50;47.67;102402.97;10397645;28;19925;-64
2023/03/03 15:31:03;;;;;;;;;;;;;;;11.70;51.44;102402.44;10414920;28;19925;-64
2023/03/03 15:36:14;;;;;;;;;;;;;;;11.20;52.40;102397.22;10397360;28;20327;-64
2023/03/03 15:41:19;;;;;;;;;;;;;;;11.23;53.20;102394.50;10414639;28;19925;-64
2023/03/03 15:46:27;;;;;;;;;;;;;;;11.09;54.08;102386.25;10397198;28;19933;-63
2023/03/03 15:51:29;;;;;;;;;;;;;;;10.45;54.66;102392.69;10414250;28;19995;-63
2023/03/03 15:56:34;;;;;;;;;;;;;;;10.73;55.17;102386.56;10414956;28;19925;-63
2023/03/03 16:01:41;;;;;;;;;;;;;;;10.65;55.00;102384.19;10397447;28;19925;-64
2023/03/03 16:06:43;;;;;;;;;;;;;;;10.38;55.92;102386.78;10417271;28;19935;-64
2023/03/03 16:12:14;;;;;;;;;;;;;;;10.25;56.42;102388.03;10421417;28;20376;-63
2023/03/03 16:17:19;;;;;;;;;;;;;;;9.65;57.80;102392.41;10348464;28;19929;-63
2023/03/03 16:22:22;;;;;;;;;;;;;;;9.51;56.61;102391.94;10418558;28;19951;-63
2023/03/03 16:27:36;;;;;;;;;;;;;;;8.85;58.29;102390.13;10419180;28;19925;-63
2023/03/03 16:32:43;;;;;;;;;;;;;;;9.33;58.03;102403.72;10418971;28;19925;-63
2023/03/03 16:37:54;;;;;;;;;;;;;;;8.81;59.42;102400.69;10400696;28;19929;-63
2023/03/03 16:43:00;;;;;;;;;;;;;;;8.67;60.50;102407.09;10418553;28;19925;-63
2023/03/03 16:48:07;;;;;;;;;;;;;;;8.33;60.81;102420.88;10400443;28;20438;-63
2023/03/03 16:53:13;;;;;;;;;;;;;;;8.36;60.80;102423.44;10417658;28;20361;-63
2023/03/03 16:58:20;;;;;;;;;;;;;;;8.04;61.86;102428.50;10400795;28;19925;-63
2023/03/03 17:03:25;;;;;;;;;;;;;;;8.32;61.08;102423.53;10400473;28;19925;-63
2023/03/03 17:08:33;;;;;;;;;;;;;;;8.12;61.49;102432.66;10417766;28;19925;-62
2023/03/03 17:13:36;;;;;;;;;;;;;;;7.80;62.71;102438.50;10355961;28;1760990;-63
2023/03/03 17:18:56;;;;;;;;;;;;;;;7.41;63.44;102434.03;10418893;28;19971;-63
2023/03/03 17:24:01;;;;;;;;;;;;;;;7.36;64.08;102437.59;10419217;28;19925;-63
2023/03/03 17:29:14;;;;;;;;;;;;;;;7.38;64.08;102449.72;10401345;28;19936;-62
2023/03/03 17:34:19;;;;;;;;;;;;;;;7.40;63.95;102447.94;10401409;28;19925;-63
2023/03/03 17:39:28;;;;;;;;;;;;;;;7.13;64.91;102456.22;10417482;28;19925;-62
2023/03/03 17:44:49;;;;;;;;;;;;;;;7.03;65.50;102471.16;10377831;28;19932;-69
2023/03/03 17:50:10;;;;;;;;;;;;;;;6.88;66.02;102469.66;10360094;28;19932;-68
2023/03/03 17:55:51;;;;;;;;;;;;;;;6.80;66.86;102484.50;10397487;28;19971;-68
2023/03/03 18:01:02;;;;;;;;;;;;;;;6.46;67.67;102491.03;10290454;28;19930;-69
2023/03/03 18:06:13;;;;;;;;;;;;;;;6.68;67.67;102482.94;10343266;28;19936;-68
2023/03/03 18:11:27;;;;;;;;;;;;;;;6.78;67.10;102492.34;10400145;28;19975;-69
2023/03/03 18:16:29;;;;;;;;;;;;;;;6.90;66.80;102496.50;10415280;28;19925;-68
2023/03/03 18:21:44;;;;;;;;;;;;;;;6.46;68.04;102501.44;10416808;28;19971;-69
2023/03/03 18:26:46;;;;;;;;;;;;;;;6.57;67.66;102503.06;10416969;28;19925;-69
2023/03/03 18:31:51;;;;;;;;;;;;;;;6.44;67.89;102505.81;10398213;28;19932;-69
2023/03/03 18:36:57;;;;;;;;;;;;;;;6.21;67.44;102507.84;10413508;28;19995;-69
2023/03/03 18:42:10;;;;;;;;;;;;;;;6.45;67.17;102515.34;10398889;28;19925;-69
2023/03/03 18:47:13;;;;;;;;;;;;;;;6.44;67.90;102517.94;10415295;28;19928;-69
2023/03/03 18:52:20;;;;;;;;;;;;;;;6.31;68.10;102523.31;10413892;28;19932;-69
2023/03/03 18:57:22;;;;;;;;;;;;;;;6.45;68.10;102515.34;10398112;28;20376;-70
2023/03/03 19:02:36;;;;;;;;;;;;;;;6.22;68.27;102520.84;10396809;28;19933;-70
2023/03/03 19:07:38;;;;;;;;;;;;;;;5.93;68.92;102521.09;10399035;28;19990;-69
2023/03/03 19:12:41;;;;;;;;;;;;;;;5.72;69.50;102525.66;10411315;28;19926;-69
2023/03/03 19:17:43;;;;;;;;;;;;;;;5.89;69.19;102527.22;10356975;28;20323;-70
2023/03/03 19:22:50;;;;;;;;;;;;;;;5.71;70.43;102525.66;10356386;28;19926;-69
2023/03/03 19:28:11;;;;;;;;;;;;;;;5.68;70.31;102525.69;10391806;28;19925;-69
2023/03/03 19:33:28;;;;;;;;;;;;;;;5.72;70.92;102525.66;10400496;28;20269;-70
2023/03/03 19:38:31;;;;;;;;;;;;;;;5.43;71.07;102536.31;10373798;28;19932;-70
2023/03/03 19:43:45;;;;;;;;;;;;;;;5.61;70.65;102534.41;10389963;28;19925;-69
2023/03/03 19:48:50;;;;;;;;;;;;;;;5.57;71.20;102531.00;10404516;28;19925;-70
2023/03/03 19:54:02;;;;;;;;;;;;;;;5.69;70.81;102538.66;10422072;28;19933;-69
2023/03/03 19:59:16;;;;;;;;;;;;;;;6.05;69.41;102528.84;10401466;28;20372;-70
2023/03/03 20:04:38;;;;;;;;;;;;;;;6.21;69.07;102528.66;10379999;28;19984;-70
2023/03/03 20:09:46;;;;;;;;;;;;;;;6.00;70.49;102529.75;10370298;28;19925;-70
2023/03/03 20:14:53;;;;;;;;;;;;;;;5.70;71.66;102532.59;10374839;28;20015;-70
2023/03/03 20:20:05;;;;;;;;;;;;;;;5.79;71.34;102538.59;10401305;28;19925;-70
2023/03/03 20:25:14;;;;;;;;;;;;;;;5.76;72.02;102536.88;10416894;28;19971;-70
2023/03/03 20:30:29;;;;;;;;;;;;;;;5.74;72.12;102538.63;10421423;28;19925;-70
2023/03/03 20:35:51;;;;;;;;;;;;;;;5.79;72.80;102541.19;10420081;28;20295;-70
2023/03/03 20:40:59;;;;;;;;;;;;;;;5.87;72.00;102553.25;10420082;28;19925;-70
2023/03/03 20:46:01;;;;;;;;;;;;;;;5.96;72.60;102541.91;10420209;28;19932;-69
2023/03/03 20:51:16;;;;;;;;;;;;;;;5.99;72.49;102535.84;10401911;28;19932;-70
2023/03/03 20:56:21;;;;;;;;;;;;;;;6.09;72.13;102540.06;10400110;28;19971;-69
2023/03/03 21:01:41;;;;;;;;;;;;;;;6.05;72.68;102538.34;10402288;28;19932;-70
2023/03/03 21:06:44;;;;;;;;;;;;;;;5.98;72.14;102537.56;10396333;28;20261;-63
2023/03/03 21:11:46;;;;;;;;;;;;;;;6.16;71.86;102535.66;10418999;28;19929;-63
2023/03/03 21:16:49;;;;;;;;;;;;;;;6.00;72.55;102532.34;10418114;28;19972;-63
2023/03/03 21:21:51;;;;;;;;;;;;;;;6.11;72.62;102527.88;10418687;28;20406;-63
2023/03/03 21:26:53;;;;;;;;;;;;;;;5.95;73.48;102527.16;10399489;28;19929;-63
2023/03/03 21:31:56;;;;;;;;;;;;;;;5.98;73.42;102527.16;10418336;28;20253;-63
2023/03/03 21:37:00;;;;;;;;;;;;;;;5.99;74.27;102531.47;10399708;28;19969;-63
2023/03/03 21:42:03;;;;;;;;;;;;;;;5.90;74.26;102532.41;10417782;28;19925;-63
2023/03/03 21:47:06;;;;;;;;;;;;;;;5.82;74.07;102538.56;10416030;28;19948;-63
2023/03/03 21:52:09;;;;;;;;;;;;;;;6.03;74.16;102535.75;10400685;28;19932;-63
2023/03/03 21:57:11;;;;;;;;;;;;;;;5.94;74.48;102530.63;10400634;28;19979;-63
2023/03/03 22:02:13;;;;;;;;;;;;;;;5.91;74.66;102522.88;10414898;28;20372;-63
2023/03/03 22:07:16;;;;;;;;;;;;;;;5.99;74.72;102528.03;10412994;28;19948;-63
2023/03/03 22:12:18;;;;;;;;;;;;;;;6.03;75.44;102519.31;10415933;28;19980;-63
2023/03/03 22:17:24;;;;;;;;;;;;;;;5.94;74.52;102518.50;10415512;28;19925;-63
2023/03/03 22:22:26;;;;;;;;;;;;;;;5.90;74.90;102518.53;10416465;28;20411;-63
2023/03/03 22:27:28;;;;;;;;;;;;;;;5.98;74.67;102519.34;10415634;28;20303;-63
2023/03/03 22:32:30;;;;;;;;;;;;;;;5.85;75.83;102515.13;10416759;28;19925;-63
2023/03/03 22:37:32;;;;;;;;;;;;;;;5.97;74.76;102509.84;10416678;28;19925;-63
2023/03/03 22:42:35;;;;;;;;;;;;;;;6.02;74.60;102513.25;10414866;28;20299;-63
2023/03/03 22:47:37;;;;;;;;;;;;;;;5.84;75.47;102513.41;10414410;28;19925;-63
2023/03/03 22:52:39;;;;;;;;;;;;;;;5.81;75.50;102511.69;10416377;28;19925;-63
2023/03/03 22:57:41;;;;;;;;;;;;;;;5.73;76.29;102511.78;10415516;28;19925;-63
2023/03/03 23:02:43;;;;;;;;;;;;;;;5.73;75.70;102511.78;10415482;28;19929;-63
2023/03/03 23:07:46;;;;;;;;;;;;;;;5.88;76.11;102515.09;10416033;28;19999;-63
2023/03/03 23:12:48;;;;;;;;;;;;;;;5.98;76.48;102516.75;10414972;28;19929;-63
2023/03/03 23:17:50;;;;;;;;;;;;;;;6.01;75.88;102527.13;10419283;28;19929;-63
2023/03/03 23:22:52;;;;;;;;;;;;;;;5.91;75.62;102515.06;10423997;28;19925;-63
2023/03/03 23:27:55;;;;;;;;;;;;;;;5.68;76.91;102518.78;10423244;28;19929;-63
2023/03/03 23:32:57;;;;;;;;;;;;;;;5.67;76.56;102513.59;10422866;28;19929;-63
2023/03/03 23:37:59;;;;;;;;;;;;;;;5.88;76.43;102515.94;10422802;28;20372;-63
2023/03/03 23:43:01;;;;;;;;;;;;;;;5.84;75.23;102519.47;10423253;28;19979;-63
2023/03/03 23:48:04;;;;;;;;;;;;;;;5.80;76.09;102514.31;10421033;28;19995;-62
2023/03/03 23:53:06;;;;;;;;;;;;;;;5.76;76.11;102516.94;10422914;28;19925;-63
2023/03/03 23:58:09;;;;;;;;;;;;;;;5.59;76.90;102514.50;10422159;28;19925;-63
